Shinkai Maru — JJ4012 — position and weather

sailwx.info

Track history (hours):
 
Tides and Currents Weather Stations Pressure Air Temp Water Temp Dewpoint Dewpoint Depression Visibility Wind Speed Wind Dir Waves Ship Positions

Shinkai Maru

Last reported at 2016-Dec-09 22:03 UTC. Time now 2016-Dec-10 10:54 UTC.
Position N 34°13' E 134°58'.

Length 76 m; draft 4.1 m.

Type: Cargo ship. MMSI: 431301346.

Date/timePositionNaut miles runAvg speedWind from/ knotsBaromVisibWave heightAir tempDewpointWater temp
2016-Dec-09 22:03N 34°13' E 134°58'711.4
2016-Dec-09 21:24N 34°21' E 134°59'1011.9
2016-Dec-09 20:33N 34°31' E 135°02'7 6.6
2016-Dec-09 19:25N 34°36' E 134°56'2 0.1
2016-Dec-09 00:21N 34°37' E 134°54'8 9.8
2016-Dec-08 23:33N 34°36' E 135°03'1110.9
2016-Dec-08 22:33N 34°25' E 135°02'1212.0
2016-Dec-08 21:33N 34°13' E 134°60'1312.2
2016-Dec-08 20:29N 34°01' E 135°02'  
2016-Dec-06 04:32N 34°27' E 135°01'10 9.8
2016-Dec-06 03:33N 34°37' E 135°01'6 0.3
2016-Dec-05 08:30N 34°37' E 134°54'1010.1
2016-Dec-05 07:33N 34°36' E 135°06'9 9.3
2016-Dec-05 06:33N 34°42' E 135°15'1 0.7
2016-Dec-05 05:20N 34°42' E 135°15'0 0.0
2016-Dec-05 04:26N 34°42' E 135°15'0 0.0
2016-Dec-05 03:32N 34°42' E 135°15'0 0.0
2016-Dec-05 02:32N 34°42' E 135°15'0 0.0
2016-Dec-05 01:32N 34°42' E 135°15'0 0.0
2016-Dec-05 00:32N 34°42' E 135°15'0 0.0
2016-Dec-04 23:32N 34°42' E 135°15'1 0.8
2016-Dec-04 22:29N 34°41' E 135°15'0 0.0
2016-Dec-04 21:29N 34°41' E 135°15'0 0.0
2016-Dec-04 20:29N 34°41' E 135°15'0 0.0
2016-Dec-04 19:23N 34°41' E 135°15'0 0.0
2016-Dec-04 18:23N 34°41' E 135°15'0 0.0
2016-Dec-04 17:29N 34°41' E 135°15'0 0.0
2016-Dec-04 16:29N 34°41' E 135°15'0 0.0
2016-Dec-04 15:33N 34°41' E 135°15'7 7.2
2016-Dec-04 14:34N 34°36' E 135°09'1210.8
2016-Dec-04 13:27N 34°37' E 134°55'8 0.6
2016-Dec-04 00:11N 34°41' E 134°47'812.2
2016-Dec-03 23:32N 34°37' E 134°55'9 9.0
2016-Dec-03 22:32N 34°31' E 135°04'1512.4
2016-Dec-03 21:18N 34°16' E 134°59'911.7
2016-Dec-03 20:33N 34°08' E 135°00'17 0.4
2016-Dec-02 02:04N 34°25' E 135°01'611.5
2016-Dec-02 01:34N 34°30' E 135°04'9 7.3
2016-Dec-02 00:21N 34°37' E 135°09'0 0.0
2016-Dec-01 23:33N 34°37' E 135°09'7 6.8
2016-Dec-01 22:33N 34°37' E 135°01'10 0.6
2016-Dec-01 06:08N 34°40' E 134°49'6 9.4
2016-Dec-01 05:32N 34°37' E 134°55'9 9.3
2016-Dec-01 04:33N 34°36' E 135°06'1211.6
2016-Dec-01 03:33N 34°34' E 135°20'5 1.5
2016-Dec-01 00:30N 34°33' E 135°26'5 0.8
2016-Nov-30 18:21N 34°33' E 135°20'1012.2
2016-Nov-30 17:33N 34°34' E 135°08'1713.4
2016-Nov-30 16:17N 34°40' E 134°49'0 0.0
2016-Nov-30 11:19N 34°40' E 134°49'1113.1
2016-Nov-30 10:29N 34°37' E 135°01'1111.3
2016-Nov-30 09:33N 34°27' E 135°02'1212.3
2016-Nov-30 08:33N 34°15' E 134°60'  
Track history (hours):
 
Tides and Currents Weather Stations Pressure Air Temp Water Temp Dewpoint Dewpoint Depression Visibility Wind Speed Wind Dir Waves Ship Positions

Shinkai Maru

Last reported at 2016-Dec-09 22:03 UTC. Time now 2016-Dec-10 10:54 UTC.
Position N 34°13' E 134°58'.

Length 76 m; draft 4.1 m.

Type: Cargo ship. MMSI: 431301346.

Date/timePositionNaut miles runAvg speedWind from/ knotsBaromVisibWave heightAir tempDewpointWater temp
2016-Dec-09 22:03N 34°13' E 134°58'711.4
2016-Dec-09 21:24N 34°21' E 134°59'1011.9
2016-Dec-09 20:33N 34°31' E 135°02'7 6.6
2016-Dec-09 19:25N 34°36' E 134°56'2 0.1
2016-Dec-09 00:21N 34°37' E 134°54'8 9.8
2016-Dec-08 23:33N 34°36' E 135°03'1110.9
2016-Dec-08 22:33N 34°25' E 135°02'1212.0
2016-Dec-08 21:33N 34°13' E 134°60'1312.2
2016-Dec-08 20:29N 34°01' E 135°02'  
2016-Dec-06 04:32N 34°27' E 135°01'10 9.8
2016-Dec-06 03:33N 34°37' E 135°01'6 0.3
2016-Dec-05 08:30N 34°37' E 134°54'1010.1
2016-Dec-05 07:33N 34°36' E 135°06'9 9.3
2016-Dec-05 06:33N 34°42' E 135°15'1 0.7
2016-Dec-05 05:20N 34°42' E 135°15'0 0.0
2016-Dec-05 04:26N 34°42' E 135°15'0 0.0
2016-Dec-05 03:32N 34°42' E 135°15'0 0.0
2016-Dec-05 02:32N 34°42' E 135°15'0 0.0
2016-Dec-05 01:32N 34°42' E 135°15'0 0.0
2016-Dec-05 00:32N 34°42' E 135°15'0 0.0
2016-Dec-04 23:32N 34°42' E 135°15'1 0.8
2016-Dec-04 22:29N 34°41' E 135°15'0 0.0
2016-Dec-04 21:29N 34°41' E 135°15'0 0.0
2016-Dec-04 20:29N 34°41' E 135°15'0 0.0
2016-Dec-04 19:23N 34°41' E 135°15'0 0.0
2016-Dec-04 18:23N 34°41' E 135°15'0 0.0
2016-Dec-04 17:29N 34°41' E 135°15'0 0.0
2016-Dec-04 16:29N 34°41' E 135°15'0 0.0
2016-Dec-04 15:33N 34°41' E 135°15'7 7.2
2016-Dec-04 14:34N 34°36' E 135°09'1210.8
2016-Dec-04 13:27N 34°37' E 134°55'8 0.6
2016-Dec-04 00:11N 34°41' E 134°47'812.2
2016-Dec-03 23:32N 34°37' E 134°55'9 9.0
2016-Dec-03 22:32N 34°31' E 135°04'1512.4
2016-Dec-03 21:18N 34°16' E 134°59'911.7
2016-Dec-03 20:33N 34°08' E 135°00'17 0.4
2016-Dec-02 02:04N 34°25' E 135°01'611.5
2016-Dec-02 01:34N 34°30' E 135°04'9 7.3
2016-Dec-02 00:21N 34°37' E 135°09'0 0.0
2016-Dec-01 23:33N 34°37' E 135°09'7 6.8
2016-Dec-01 22:33N 34°37' E 135°01'10 0.6
2016-Dec-01 06:08N 34°40' E 134°49'6 9.4
2016-Dec-01 05:32N 34°37' E 134°55'9 9.3
2016-Dec-01 04:33N 34°36' E 135°06'1211.6
2016-Dec-01 03:33N 34°34' E 135°20'5 1.5
2016-Dec-01 00:30N 34°33' E 135°26'5 0.8
2016-Nov-30 18:21N 34°33' E 135°20'1012.2
2016-Nov-30 17:33N 34°34' E 135°08'1713.4
2016-Nov-30 16:17N 34°40' E 134°49'0 0.0
2016-Nov-30 11:19N 34°40' E 134°49'1113.1
2016-Nov-30 10:29N 34°37' E 135°01'1111.3
2016-Nov-30 09:33N 34°27' E 135°02'1212.3
2016-Nov-30 08:33N 34°15' E 134°60'  

Dump ship's entire track history